sensor_id;sensor_type;location;lat;lon;timestamp;temperature;humidity
82126;DHT22;71668;51.400;6.758;2024-01-30T00:00:45;10.20;99.90
82126;DHT22;71668;51.400;6.758;2024-01-30T00:03:12;10.20;99.90
82126;DHT22;71668;51.400;6.758;2024-01-30T00:05:40;10.20;99.90
82126;DHT22;71668;51.400;6.758;2024-01-30T00:08:06;10.20;99.90
82126;DHT22;71668;51.400;6.758;2024-01-30T00:10:33;10.20;99.90
82126;DHT22;71668;51.400;6.758;2024-01-30T00:13:00;10.20;99.90
82126;DHT22;71668;51.400;6.758;2024-01-30T00:15:27;10.10;99.90
82126;DHT22;71668;51.400;6.758;2024-01-30T00:17:54;10.20;99.90
82126;DHT22;71668;51.400;6.758;2024-01-30T00:20:21;10.10;99.90
82126;DHT22;71668;51.400;6.758;2024-01-30T00:22:48;10.20;99.90
82126;DHT22;71668;51.400;6.758;2024-01-30T00:25:14;10.20;99.90
82126;DHT22;71668;51.400;6.758;2024-01-30T00:27:41;10.20;99.90
82126;DHT22;71668;51.400;6.758;2024-01-30T00:30:09;10.20;99.90
82126;DHT22;71668;51.400;6.758;2024-01-30T00:32:36;10.40;99.90
82126;DHT22;71668;51.400;6.758;2024-01-30T00:35:04;10.70;99.90
82126;DHT22;71668;51.400;6.758;2024-01-30T00:37:32;10.70;99.90
82126;DHT22;71668;51.400;6.758;2024-01-30T00:39:59;10.70;99.90
82126;DHT22;71668;51.400;6.758;2024-01-30T00:42:26;10.60;99.90
82126;DHT22;71668;51.400;6.758;2024-01-30T00:44:53;10.40;99.90
82126;DHT22;71668;51.400;6.758;2024-01-30T00:47:20;10.30;99.90
82126;DHT22;71668;51.400;6.758;2024-01-30T00:49:55;10.30;99.90
82126;DHT22;71668;51.400;6.758;2024-01-30T00:52:22;10.20;99.90
82126;DHT22;71668;51.400;6.758;2024-01-30T00:54:51;10.20;99.90
82126;DHT22;71668;51.400;6.758;2024-01-30T00:57:18;10.20;99.90
82126;DHT22;71668;51.400;6.758;2024-01-30T00:59:49;10.20;99.90
82126;DHT22;71668;51.400;6.758;2024-01-30T01:02:18;10.10;99.90
82126;DHT22;71668;51.400;6.758;2024-01-30T01:04:47;10.10;99.90
82126;DHT22;71668;51.400;6.758;2024-01-30T01:07:14;10.10;99.90
82126;DHT22;71668;51.400;6.758;2024-01-30T01:09:41;10.10;99.90
82126;DHT22;71668;51.400;6.758;2024-01-30T01:12:09;10.00;99.90
82126;DHT22;71668;51.400;6.758;2024-01-30T01:14:35;10.00;99.90
82126;DHT22;71668;51.400;6.758;2024-01-30T01:17:03;10.00;99.90
82126;DHT22;71668;51.400;6.758;2024-01-30T01:19:30;10.00;99.90
82126;DHT22;71668;51.400;6.758;2024-01-30T01:21:57;10.00;99.90
82126;DHT22;71668;51.400;6.758;2024-01-30T01:24:24;10.00;99.90
82126;DHT22;71668;51.400;6.758;2024-01-30T01:26:51;10.00;99.90
82126;DHT22;71668;51.400;6.758;2024-01-30T01:29:17;10.00;99.90
82126;DHT22;71668;51.400;6.758;2024-01-30T01:31:44;10.00;99.90
82126;DHT22;71668;51.400;6.758;2024-01-30T01:34:15;10.00;99.90
82126;DHT22;71668;51.400;6.758;2024-01-30T01:36:42;10.00;99.90
82126;DHT22;71668;51.400;6.758;2024-01-30T01:39:09;9.90;99.90
82126;DHT22;71668;51.400;6.758;2024-01-30T01:41:37;9.90;99.90
82126;DHT22;71668;51.400;6.758;2024-01-30T01:44:04;9.90;99.90
82126;DHT22;71668;51.400;6.758;2024-01-30T01:46:33;9.90;99.90
82126;DHT22;71668;51.400;6.758;2024-01-30T01:49:02;9.90;99.90
82126;DHT22;71668;51.400;6.758;2024-01-30T01:51:31;9.90;99.90
82126;DHT22;71668;51.400;6.758;2024-01-30T01:54:03;9.90;99.90
82126;DHT22;71668;51.400;6.758;2024-01-30T01:56:31;9.90;99.90
82126;DHT22;71668;51.400;6.758;2024-01-30T01:59:01;9.80;99.90
82126;DHT22;71668;51.400;6.758;2024-01-30T02:01:32;9.80;99.90
82126;DHT22;71668;51.400;6.758;2024-01-30T02:04:00;9.80;99.90
82126;DHT22;71668;51.400;6.758;2024-01-30T02:06:28;9.80;99.90
82126;DHT22;71668;51.400;6.758;2024-01-30T02:08:55;9.80;99.90
82126;DHT22;71668;51.400;6.758;2024-01-30T02:11:22;9.80;99.90
82126;DHT22;71668;51.400;6.758;2024-01-30T02:13:50;9.80;99.90
82126;DHT22;71668;51.400;6.758;2024-01-30T02:16:16;9.80;99.90
82126;DHT22;71668;51.400;6.758;2024-01-30T02:18:44;9.80;99.90
82126;DHT22;71668;51.400;6.758;2024-01-30T02:21:17;9.80;99.90
82126;DHT22;71668;51.400;6.758;2024-01-30T02:23:46;9.80;99.90
82126;DHT22;71668;51.400;6.758;2024-01-30T02:26:13;9.80;99.90
82126;DHT22;71668;51.400;6.758;2024-01-30T02:28:40;9.80;99.90
82126;DHT22;71668;51.400;6.758;2024-01-30T02:31:07;9.80;99.90
82126;DHT22;71668;51.400;6.758;2024-01-30T02:33:34;9.70;99.90
82126;DHT22;71668;51.400;6.758;2024-01-30T02:36:01;9.70;99.90
82126;DHT22;71668;51.400;6.758;2024-01-30T02:38:28;9.70;99.90
82126;DHT22;71668;51.400;6.758;2024-01-30T02:40:55;9.70;99.90
82126;DHT22;71668;51.400;6.758;2024-01-30T02:43:23;9.70;99.90
82126;DHT22;71668;51.400;6.758;2024-01-30T02:45:50;9.70;99.90
82126;DHT22;71668;51.400;6.758;2024-01-30T02:48:17;9.70;99.90
82126;DHT22;71668;51.400;6.758;2024-01-30T02:50:44;9.70;99.90
82126;DHT22;71668;51.400;6.758;2024-01-30T02:53:10;9.70;99.90
82126;DHT22;71668;51.400;6.758;2024-01-30T02:55:37;9.70;99.90
82126;DHT22;71668;51.400;6.758;2024-01-30T02:58:04;9.70;99.90
82126;DHT22;71668;51.400;6.758;2024-01-30T03:00:31;9.70;99.90
82126;DHT22;71668;51.400;6.758;2024-01-30T03:02:58;9.70;99.90
82126;DHT22;71668;51.400;6.758;2024-01-30T03:05:25;9.70;99.90
82126;DHT22;71668;51.400;6.758;2024-01-30T03:07:52;9.70;99.90
82126;DHT22;71668;51.400;6.758;2024-01-30T03:10:19;9.70;99.90
82126;DHT22;71668;51.400;6.758;2024-01-30T03:12:46;9.70;99.90
82126;DHT22;71668;51.400;6.758;2024-01-30T03:15:13;9.70;99.90
82126;DHT22;71668;51.400;6.758;2024-01-30T03:17:40;9.70;99.90
82126;DHT22;71668;51.400;6.758;2024-01-30T03:20:07;9.70;99.90
82126;DHT22;71668;51.400;6.758;2024-01-30T03:22:35;9.60;99.90
82126;DHT22;71668;51.400;6.758;2024-01-30T03:25:03;9.70;99.90
82126;DHT22;71668;51.400;6.758;2024-01-30T03:27:30;9.70;99.90
82126;DHT22;71668;51.400;6.758;2024-01-30T03:29:56;9.70;99.90
82126;DHT22;71668;51.400;6.758;2024-01-30T03:32:23;9.60;99.90
82126;DHT22;71668;51.400;6.758;2024-01-30T03:34:50;9.60;99.90
82126;DHT22;71668;51.400;6.758;2024-01-30T03:37:17;9.60;99.90
82126;DHT22;71668;51.400;6.758;2024-01-30T03:39:44;9.60;99.90
82126;DHT22;71668;51.400;6.758;2024-01-30T03:42:13;9.60;99.90
82126;DHT22;71668;51.400;6.758;2024-01-30T03:44:40;9.60;99.90
82126;DHT22;71668;51.400;6.758;2024-01-30T03:47:07;9.60;99.90
82126;DHT22;71668;51.400;6.758;2024-01-30T03:49:34;9.60;99.90
82126;DHT22;71668;51.400;6.758;2024-01-30T03:52:01;9.60;99.90
82126;DHT22;71668;51.400;6.758;2024-01-30T03:54:28;9.60;99.90
82126;DHT22;71668;51.400;6.758;2024-01-30T03:56:55;9.60;99.90
82126;DHT22;71668;51.400;6.758;2024-01-30T03:59:21;9.60;99.90
82126;DHT22;71668;51.400;6.758;2024-01-30T04:01:51;9.60;99.90
82126;DHT22;71668;51.400;6.758;2024-01-30T04:04:18;9.60;99.90
82126;DHT22;71668;51.400;6.758;2024-01-30T04:06:46;9.60;99.90
82126;DHT22;71668;51.400;6.758;2024-01-30T04:09:13;9.60;99.90
